Time;durP1;ratioP1;P1;durP2;ratioP2;P2;SDS_P1;SDS_P2;PMS_P1;PMS_P2;Temp;Humidity;BMP_temperature;BMP_pressure;BME280_temperature;BME280_humidity;BME280_pressure;Samples;Min_cycle;Max_cycle;Signal;HPM_P1;HPM_P2
2021/10/03 00:00:48;;;;;;;4.28;1.02;;;17.20;99.90;;;;;;5063602;28;20033;-73
2021/10/03 00:03:18;;;;;;;3.85;1.40;;;17.30;99.90;;;;;;5059072;28;20112;-73
2021/10/03 00:05:50;;;;;;;2.80;1.25;;;17.40;99.90;;;;;;5048557;28;20056;-73
2021/10/03 00:08:16;;;;;;;1.23;0.88;;;17.30;99.90;;;;;;5041608;28;20696;-73
2021/10/03 00:10:42;;;;;;;3.35;0.93;;;17.30;99.90;;;;;;5063331;28;20044;-73
2021/10/03 00:13:08;;;;;;;1.77;0.73;;;17.30;99.90;;;;;;5055837;28;20379;-73
2021/10/03 00:15:37;;;;;;;1.95;1.02;;;17.40;99.90;;;;;;5063250;28;20072;-73
2021/10/03 00:18:04;;;;;;;0.60;0.60;;;17.40;99.90;;;;;;5065367;28;20017;-73
2021/10/03 00:20:30;;;;;;;0.73;0.70;;;17.40;99.90;;;;;;5064469;28;20025;-74
2021/10/03 00:22:56;;;;;;;2.17;0.95;;;17.40;99.90;;;;;;5064189;28;20037;-74
2021/10/03 00:25:25;;;;;;;1.27;0.70;;;17.50;99.90;;;;;;5057341;28;20093;-73
2021/10/03 00:27:53;;;;;;;1.50;0.90;;;17.40;99.90;;;;;;5047481;28;20017;-73
2021/10/03 00:30:19;;;;;;;1.83;0.75;;;17.40;99.90;;;;;;5048060;28;20033;-73
2021/10/03 00:32:45;;;;;;;1.55;0.60;;;17.30;99.90;;;;;;5047098;28;20031;-73
2021/10/03 00:35:12;;;;;;;1.73;1.17;;;17.30;99.90;;;;;;5063062;28;20025;-73
2021/10/03 00:37:38;;;;;;;1.35;0.70;;;17.30;99.90;;;;;;5061450;28;20107;-73
2021/10/03 00:40:05;;;;;;;0.70;0.70;;;17.20;99.90;;;;;;5061393;28;20029;-72
2021/10/03 00:42:31;;;;;;;0.82;0.70;;;17.10;99.90;;;;;;5046973;28;20029;-73
2021/10/03 00:44:56;;;;;;;0.73;0.70;;;17.00;99.90;;;;;;5064949;28;20040;-73
2021/10/03 00:47:23;;;;;;;1.30;0.60;;;16.90;99.90;;;;;;5062883;28;20616;-72
2021/10/03 00:49:48;;;;;;;1.67;0.65;;;16.80;99.90;;;;;;5045739;28;20048;-72
2021/10/03 00:52:14;;;;;;;0.70;0.70;;;16.70;99.90;;;;;;5063783;28;20456;-72
2021/10/03 00:54:40;;;;;;;0.50;0.50;;;16.70;99.90;;;;;;5038550;28;20029;-72
2021/10/03 00:57:06;;;;;;;2.35;1.23;;;16.70;99.90;;;;;;5043235;28;20375;-72
2021/10/03 00:59:33;;;;;;;2.63;0.90;;;16.60;99.90;;;;;;5058055;28;20037;-72
2021/10/03 01:01:59;;;;;;;2.67;1.30;;;16.60;99.90;;;;;;5061030;28;20043;-71
2021/10/03 01:04:25;;;;;;;1.10;0.75;;;16.60;99.90;;;;;;5063589;28;20029;-71
2021/10/03 01:06:51;;;;;;;0.85;0.70;;;16.50;99.90;;;;;;5063720;28;20017;-72
2021/10/03 01:09:21;;;;;;;3.10;1.27;;;16.50;99.90;;;;;;5047085;28;20028;-72
2021/10/03 01:11:47;;;;;;;4.82;1.48;;;16.30;99.90;;;;;;5064125;28;20548;-72
2021/10/03 01:14:15;;;;;;;3.90;1.40;;;16.40;99.90;;;;;;5058552;28;20036;-71
2021/10/03 01:16:40;;;;;;;2.47;1.13;;;16.40;99.90;;;;;;5059374;28;20072;-71
2021/10/03 01:19:08;;;;;;;2.05;0.80;;;16.30;99.90;;;;;;5061547;28;20444;-72
2021/10/03 01:21:33;;;;;;;1.58;0.82;;;16.30;99.90;;;;;;5050128;28;20055;-72
2021/10/03 01:23:59;;;;;;;2.10;0.70;;;16.20;99.90;;;;;;5063208;28;20052;-73
2021/10/03 01:26:27;;;;;;;1.08;0.88;;;16.20;99.90;;;;;;5058799;28;20032;-72
2021/10/03 01:28:53;;;;;;;1.35;0.77;;;16.10;99.90;;;;;;5047018;28;20067;-72
2021/10/03 01:31:24;;;;;;;1.00;0.80;;;16.10;99.90;;;;;;5057217;28;20477;-72
2021/10/03 01:33:52;;;;;;;0.68;0.68;;;16.20;99.90;;;;;;5066662;28;20028;-71
2021/10/03 01:36:18;;;;;;;2.60;1.10;;;16.20;99.90;;;;;;5057186;28;20086;-72
2021/10/03 01:38:44;;;;;;;1.27;0.73;;;16.20;99.90;;;;;;5053885;28;20021;-72
2021/10/03 01:41:10;;;;;;;0.65;0.65;;;16.30;99.90;;;;;;5053931;28;20098;-72
2021/10/03 01:43:36;;;;;;;2.70;0.80;;;16.40;99.90;;;;;;5060514;28;20028;-72
2021/10/03 01:46:02;;;;;;;2.67;1.08;;;16.40;99.90;;;;;;5060803;28;20091;-72
2021/10/03 01:48:28;;;;;;;0.93;0.80;;;16.40;99.90;;;;;;5041796;28;20016;-72
2021/10/03 01:51:05;;;;;;;2.20;0.98;;;16.40;99.90;;;;;;5051865;28;20033;-71
2021/10/03 01:53:40;;;;;;;2.13;1.10;;;16.70;99.90;;;;;;5047656;28;20421;-72
2021/10/03 01:56:08;;;;;;;0.57;0.57;;;16.50;99.90;;;;;;5049724;28;20028;-72
2021/10/03 01:58:52;;;;;;;1.15;0.85;;;16.40;99.90;;;;;;5059826;28;20063;-71
2021/10/03 02:01:28;;;;;;;1.77;0.80;;;16.50;99.90;;;;;;5068138;28;20042;-71
2021/10/03 02:03:54;;;;;;;1.38;0.60;;;16.50;99.90;;;;;;5049346;28;20051;-71
2021/10/03 02:06:20;;;;;;;1.88;0.77;;;16.60;99.90;;;;;;5044063;28;20028;-71
2021/10/03 02:08:51;;;;;;;3.42;1.55;;;16.60;99.90;;;;;;5057538;28;20031;-72
2021/10/03 02:11:16;;;;;;;1.95;0.85;;;16.60;99.90;;;;;;5061857;28;20500;-71
2021/10/03 02:13:42;;;;;;;1.90;0.90;;;16.70;99.90;;;;;;5059334;28;20117;-71
2021/10/03 02:16:08;;;;;;;3.13;1.30;;;16.70;99.90;;;;;;5051752;28;20032;-71
2021/10/03 02:18:39;;;;;;;1.35;0.98;;;16.80;99.90;;;;;;5058290;28;20028;-71
2021/10/03 02:21:06;;;;;;;2.10;0.95;;;16.90;99.90;;;;;;5047840;28;20021;-72
2021/10/03 02:23:33;;;;;;;0.70;0.60;;;16.90;99.90;;;;;;5068513;28;20156;-73
2021/10/03 02:25:59;;;;;;;0.85;0.60;;;16.90;99.90;;;;;;5053374;28;20089;-71
2021/10/03 02:28:26;;;;;;;2.28;0.82;;;16.80;99.90;;;;;;5061906;28;20091;-72
2021/10/03 02:30:56;;;;;;;1.02;0.60;;;17.00;99.90;;;;;;5069789;28;20020;-71
2021/10/03 02:33:22;;;;;;;;;;;16.90;99.90;;;;;;5057528;28;20020;-72
2021/10/03 02:35:48;;;;;;;0.80;0.80;;;16.90;99.90;;;;;;5053780;28;19905;-71
2021/10/03 02:38:19;;;;;;;0.68;0.60;;;16.90;99.90;;;;;;5057942;28;20037;-72
2021/10/03 02:40:45;;;;;;;;;;;16.90;99.90;;;;;;5064540;28;20372;-71
2021/10/03 02:43:12;;;;;;;1.63;0.73;;;16.90;99.90;;;;;;5055093;28;19908;-71
2021/10/03 02:45:42;;;;;;;1.50;0.90;;;17.00;99.90;;;;;;5046499;28;20025;-72
2021/10/03 02:48:09;;;;;;;0.95;0.55;;;16.90;99.90;;;;;;5067783;28;20411;-71
2021/10/03 02:50:35;;;;;;;1.75;1.08;;;16.90;99.90;;;;;;5056628;28;20468;-72
2021/10/03 02:53:02;;;;;;;1.20;0.68;;;17.00;99.90;;;;;;5065236;28;20017;-71
2021/10/03 02:55:28;;;;;;;0.60;0.60;;;17.00;99.90;;;;;;5064919;28;20024;-72
2021/10/03 02:57:54;;;;;;;1.88;0.80;;;17.00;99.90;;;;;;5061992;28;20028;-72
2021/10/03 03:00:20;;;;;;;0.98;0.68;;;17.00;99.90;;;;;;5059168;28;20023;-72
2021/10/03 03:02:45;;;;;;;2.53;1.02;;;17.00;99.90;;;;;;5062179;28;20098;-72
2021/10/03 03:05:12;;;;;;;1.05;0.70;;;17.10;99.90;;;;;;5069067;28;20028;-71
2021/10/03 03:07:38;;;;;;;1.30;0.68;;;17.20;99.90;;;;;;5050631;28;20060;-71
2021/10/03 03:10:06;;;;;;;2.08;1.33;;;17.20;99.90;;;;;;5052719;28;20025;-71
2021/10/03 03:12:32;;;;;;;1.10;0.73;;;17.20;99.90;;;;;;5042399;28;20021;-72
2021/10/03 03:14:58;;;;;;;1.40;0.70;;;17.10;99.90;;;;;;5051000;28;20151;-71
2021/10/03 03:17:24;;;;;;;1.10;0.60;;;17.10;99.90;;;;;;5045883;28;20028;-71
2021/10/03 03:19:49;;;;;;;2.05;1.20;;;17.00;99.90;;;;;;5054097;28;20372;-73
2021/10/03 03:22:15;;;;;;;3.33;1.13;;;17.00;99.90;;;;;;5072175;28;20075;-71
2021/10/03 03:24:42;;;;;;;2.17;0.88;;;17.10;99.90;;;;;;5078013;28;20469;-71
2021/10/03 03:27:08;;;;;;;1.80;0.73;;;17.10;99.90;;;;;;5053523;28;20021;-72
2021/10/03 03:29:34;;;;;;;2.08;0.82;;;17.00;99.90;;;;;;5051463;28;20132;-71
2021/10/03 03:32:00;;;;;;;0.77;0.60;;;16.90;99.90;;;;;;5065574;28;20426;-72
2021/10/03 03:34:27;;;;;;;1.20;0.70;;;16.80;99.90;;;;;;5041556;28;20033;-71
2021/10/03 03:36:53;;;;;;;1.27;0.70;;;16.60;99.90;;;;;;5061998;28;20070;-72
2021/10/03 03:39:19;;;;;;;2.53;0.90;;;16.50;99.90;;;;;;5071826;28;20025;-71
2021/10/03 03:41:44;;;;;;;2.63;0.95;;;16.50;99.90;;;;;;5067788;28;20085;-72
2021/10/03 03:44:10;;;;;;;0.95;0.68;;;16.50;99.90;;;;;;5068151;28;20032;-72
2021/10/03 03:46:36;;;;;;;0.60;0.60;;;16.40;99.90;;;;;;5041781;28;20436;-71
2021/10/03 03:49:01;;;;;;;2.03;0.88;;;16.40;99.90;;;;;;5053738;28;20067;-72
2021/10/03 03:51:27;;;;;;;1.98;1.02;;;16.30;99.90;;;;;;5071972;28;20044;-73
2021/10/03 03:53:53;;;;;;;2.58;0.85;;;16.20;99.90;;;;;;5072185;28;20017;-73
2021/10/03 03:56:18;;;;;;;1.80;0.93;;;16.10;99.90;;;;;;5066898;28;20033;-73
2021/10/03 03:58:44;;;;;;;1.33;0.88;;;16.10;99.90;;;;;;5070134;28;20390;-73
2021/10/03 04:01:09;;;;;;;2.35;1.00;;;16.00;99.90;;;;;;5062582;28;20061;-73
2021/10/03 04:03:36;;;;;;;1.27;0.80;;;16.00;99.90;;;;;;5067115;28;20024;-74
2021/10/03 04:06:02;;;;;;;2.33;1.15;;;15.90;99.90;;;;;;5071755;28;20016;-73
2021/10/03 04:08:28;;;;;;;2.85;0.90;;;15.90;99.90;;;;;;5049006;28;20023;-72
2021/10/03 04:10:54;;;;;;;1.65;1.10;;;16.10;99.90;;;;;;5054200;28;20025;-73
2021/10/03 04:13:20;;;;;;;1.88;1.00;;;16.00;99.90;;;;;;5068173;28;20033;-73
2021/10/03 04:15:46;;;;;;;3.15;1.25;;;16.00;99.90;;;;;;5065003;28;20418;-73
2021/10/03 04:18:12;;;;;;;0.95;0.60;;;15.80;99.90;;;;;;5048744;28;20043;-73
2021/10/03 04:20:38;;;;;;;1.80;0.70;;;15.80;99.90;;;;;;5048508;28;20044;-73
2021/10/03 04:23:04;;;;;;;3.15;0.90;;;15.80;99.90;;;;;;5065260;28;20490;-73
2021/10/03 04:25:30;;;;;;;3.15;1.23;;;15.70;99.90;;;;;;5063739;28;20086;-73
2021/10/03 04:27:55;;;;;;;1.35;1.10;;;15.80;99.90;;;;;;5060885;28;20025;-73
2021/10/03 04:30:21;;;;;;;2.75;1.05;;;15.80;99.90;;;;;;5063204;28;20012;-72
2021/10/03 04:32:47;;;;;;;1.35;0.82;;;15.80;99.90;;;;;;5046745;28;20020;-72
2021/10/03 04:35:12;;;;;;;1.92;0.90;;;15.80;99.90;;;;;;5063584;28;20025;-73
2021/10/03 04:37:38;;;;;;;1.88;0.98;;;15.80;99.90;;;;;;5049554;28;20070;-72
2021/10/03 04:40:06;;;;;;;1.30;0.90;;;15.80;99.90;;;;;;5064160;28;20028;-73
2021/10/03 04:42:32;;;;;;;2.55;1.13;;;15.80;99.90;;;;;;5065403;28;20491;-73
2021/10/03 04:44:58;;;;;;;3.55;1.17;;;15.70;99.90;;;;;;5063309;28;20107;-73
2021/10/03 04:47:23;;;;;;;2.40;1.23;;;15.70;99.90;;;;;;5065636;28;20103;-73
2021/10/03 04:49:51;;;;;;;2.30;1.25;;;15.70;99.90;;;;;;5064009;28;20405;-73
2021/10/03 04:52:16;;;;;;;3.13;1.33;;;15.70;99.90;;;;;;5065839;28;20020;-72
2021/10/03 04:54:42;;;;;;;3.03;0.90;;;15.70;99.90;;;;;;5061635;28;20024;-72
2021/10/03 04:57:08;;;;;;;4.97;2.13;;;15.70;99.90;;;;;;5034712;28;20036;-72
2021/10/03 04:59:34;;;;;;;2.38;1.30;;;15.70;99.90;;;;;;5053393;28;20115;-72
2021/10/03 05:01:59;;;;;;;1.75;1.05;;;15.70;99.90;;;;;;5050780;28;20020;-72
2021/10/03 05:04:25;;;;;;;2.97;1.00;;;15.70;99.90;;;;;;5048747;28;20381;-72
2021/10/03 05:06:51;;;;;;;3.58;1.42;;;15.60;99.90;;;;;;5062029;28;20142;-72
2021/10/03 05:09:16;;;;;;;9.77;1.40;;;15.60;99.90;;;;;;5062986;28;20710;-72
2021/10/03 05:11:42;;;;;;;2.85;0.95;;;15.60;99.90;;;;;;5056646;28;20044;-72
2021/10/03 05:14:08;;;;;;;2.22;1.23;;;15.70;99.90;;;;;;5066718;28;20060;-73
2021/10/03 05:16:35;;;;;;;4.32;1.30;;;15.70;99.90;;;;;;5062949;28;20074;-73
2021/10/03 05:19:01;;;;;;;3.38;1.60;;;15.70;99.90;;;;;;5067316;28;20100;-72
2021/10/03 05:21:26;;;;;;;3.15;1.33;;;15.70;99.90;;;;;;5063968;28;20028;-70
2021/10/03 05:23:52;;;;;;;2.15;1.20;;;15.70;99.90;;;;;;5048545;28;20017;-72
2021/10/03 05:26:18;;;;;;;3.33;1.40;;;15.70;99.90;;;;;;5065087;28;20024;-72
2021/10/03 05:28:43;;;;;;;1.55;1.02;;;15.70;99.90;;;;;;5033200;28;20044;-72
2021/10/03 05:31:09;;;;;;;0.60;0.60;;;15.70;99.90;;;;;;5069831;28;20033;-72
2021/10/03 05:33:35;;;;;;;1.55;0.93;;;15.70;99.90;;;;;;5056434;28;20035;-72
2021/10/03 05:36:01;;;;;;;3.50;1.13;;;15.80;99.90;;;;;;5064579;28;20020;-72
2021/10/03 05:38:26;;;;;;;2.95;1.23;;;15.70;99.90;;;;;;5061491;28;20108;-70
2021/10/03 05:40:52;;;;;;;4.32;2.00;;;15.70;99.90;;;;;;5052556;28;20017;-70
2021/10/03 05:43:18;;;;;;;2.50;1.35;;;15.80;99.90;;;;;;5056964;28;20020;-72
2021/10/03 05:45:44;;;;;;;3.17;1.63;;;15.80;99.90;;;;;;5054818;28;20039;-72
2021/10/03 05:48:10;;;;;;;1.77;0.88;;;15.80;99.90;;;;;;5056826;28;20615;-72
2021/10/03 05:50:35;;;;;;;1.52;0.90;;;15.80;99.90;;;;;;5062150;28;20109;-72
2021/10/03 05:53:01;;;;;;;1.70;0.80;;;15.90;99.90;;;;;;5055008;28;20020;-72
2021/10/03 05:55:27;;;;;;;2.33;1.13;;;15.80;99.90;;;;;;5043977;28;20024;-73
2021/10/03 05:57:53;;;;;;;2.78;1.20;;;15.80;99.90;;;;;;5048728;28;20474;-72
2021/10/03 06:00:18;;;;;;;2.85;1.00;;;15.80;99.90;;;;;;5060680;28;20017;-72
2021/10/03 06:02:44;;;;;;;2.50;1.25;;;15.90;99.90;;;;;;5054639;28;20342;-71
2021/10/03 06:05:09;;;;;;;2.63;1.20;;;15.90;99.90;;;;;;5055021;28;20033;-73
2021/10/03 06:07:35;;;;;;;3.58;1.23;;;15.90;99.90;;;;;;5030838;28;20028;-73
2021/10/03 06:10:01;;;;;;;5.07;1.95;;;15.90;99.90;;;;;;5037450;28;20036;-73
2021/10/03 06:12:26;;;;;;;7.82;2.70;;;15.90;99.90;;;;;;5054264;28;20367;-73
2021/10/03 06:14:52;;;;;;;3.65;1.67;;;15.90;99.90;;;;;;5050807;28;20033;-73
2021/10/03 06:17:18;;;;;;;4.00;1.67;;;16.00;99.90;;;;;;5052593;28;20056;-72
2021/10/03 06:19:44;;;;;;;5.28;1.88;;;16.00;99.90;;;;;;5037995;28;20610;-72
2021/10/03 06:22:09;;;;;;;2.67;2.20;;;16.00;99.90;;;;;;5051729;28;20029;-72
2021/10/03 06:24:35;;;;;;;3.03;1.23;;;16.00;99.90;;;;;;5049540;28;20025;-72
2021/10/03 06:27:00;;;;;;;3.10;1.65;;;16.00;99.90;;;;;;5055217;28;20017;-72
2021/10/03 06:29:26;;;;;;;3.47;0.98;;;16.00;99.90;;;;;;5042004;28;20017;-73
2021/10/03 06:31:52;;;;;;;4.60;1.00;;;16.00;99.90;;;;;;5061113;28;20029;-72
2021/10/03 06:34:17;;;;;;;2.65;1.20;;;16.10;99.90;;;;;;5050769;28;20020;-72
2021/10/03 06:36:43;;;;;;;1.90;1.00;;;16.10;99.90;;;;;;5067014;28;20379;-72
2021/10/03 06:39:09;;;;;;;2.42;1.17;;;16.10;99.90;;;;;;5064062;28;20032;-72
2021/10/03 06:41:34;;;;;;;3.30;1.02;;;16.20;99.90;;;;;;5068941;28;20018;-72
2021/10/03 06:44:00;;;;;;;2.25;1.00;;;16.20;99.90;;;;;;5059186;28;20067;-72
2021/10/03 06:46:26;;;;;;;3.88;1.63;;;16.20;99.90;;;;;;5068279;28;20028;-74
2021/10/03 06:48:51;;;;;;;3.33;1.23;;;16.20;99.90;;;;;;5053233;28;20032;-73
2021/10/03 06:51:17;;;;;;;1.48;1.13;;;16.20;99.90;;;;;;5067783;28;20380;-72
2021/10/03 06:53:43;;;;;;;3.00;1.30;;;16.30;99.90;;;;;;5049852;28;20025;-72
2021/10/03 06:56:08;;;;;;;2.08;1.20;;;16.30;99.90;;;;;;5066669;28;20533;-72
2021/10/03 06:58:35;;;;;;;2.40;0.95;;;16.40;99.90;;;;;;5073937;28;20025;-72
2021/10/03 07:01:01;;;;;;;3.53;1.73;;;16.40;99.90;;;;;;5056930;28;20025;-72
2021/10/03 07:03:27;;;;;;;1.17;0.88;;;16.50;99.90;;;;;;5057255;28;20437;-72
2021/10/03 07:05:52;;;;;;;4.20;1.40;;;16.50;99.90;;;;;;5073981;28;20020;-72
2021/10/03 07:08:18;;;;;;;3.95;1.60;;;16.60;99.90;;;;;;5067046;28;20021;-72
2021/10/03 07:10:44;;;;;;;2.10;1.08;;;16.50;99.90;;;;;;5043414;28;20025;-72
2021/10/03 07:13:14;;;;;;;4.38;1.38;;;16.50;99.90;;;;;;5054105;28;20544;-72
2021/10/03 07:15:39;;;;;;;3.40;1.70;;;16.50;99.90;;;;;;5065338;28;20048;-72
2021/10/03 07:18:05;;;;;;;1.95;0.88;;;16.50;99.90;;;;;;5054194;28;20025;-72
2021/10/03 07:20:31;;;;;;;2.95;1.13;;;16.50;99.90;;;;;;5051126;28;20081;-72
2021/10/03 07:22:56;;;;;;;5.25;1.90;;;16.50;99.90;;;;;;5064132;28;20483;-73
2021/10/03 07:25:23;;;;;;;3.50;1.45;;;16.60;99.90;;;;;;5071456;28;20040;-73
2021/10/03 07:27:48;;;;;;;2.97;1.10;;;16.60;99.90;;;;;;5065316;28;20367;-72
2021/10/03 07:30:15;;;;;;;4.32;2.08;;;16.70;99.90;;;;;;5052810;28;20029;-73
2021/10/03 07:32:42;;;;;;;1.20;0.80;;;16.80;99.90;;;;;;5055911;28;20419;-72
2021/10/03 07:35:08;;;;;;;2.72;0.93;;;16.80;99.90;;;;;;5055722;28;20013;-72
2021/10/03 07:37:34;;;;;;;2.50;1.15;;;16.80;99.90;;;;;;5057687;28;20074;-72
2021/10/03 07:40:01;;;;;;;5.63;1.35;;;16.80;99.90;;;;;;5065377;28;20484;-72
2021/10/03 07:42:27;;;;;;;3.17;1.33;;;16.80;99.90;;;;;;5065485;28;20074;-72
2021/10/03 07:44:52;;;;;;;2.53;1.17;;;16.80;99.90;;;;;;5058373;28;20025;-72
2021/10/03 07:47:18;;;;;;;2.08;1.25;;;16.80;99.90;;;;;;5056226;28;20044;-72
2021/10/03 07:49:44;;;;;;;5.07;1.75;;;16.80;99.90;;;;;;5056301;28;20009;-72
2021/10/03 07:52:09;;;;;;;2.60;1.23;;;16.80;99.90;;;;;;5055764;28;20025;-72
2021/10/03 07:54:35;;;;;;;5.88;2.15;;;16.80;99.90;;;;;;5056015;28;20052;-72
2021/10/03 07:57:01;;;;;;;3.88;1.67;;;16.90;99.90;;;;;;5065107;28;20020;-73
2021/10/03 07:59:26;;;;;;;0.98;0.82;;;16.80;99.90;;;;;;5064979;28;20093;-72
2021/10/03 08:01:52;;;;;;;5.30;2.15;;;16.80;99.90;;;;;;5065617;28;20020;-71
2021/10/03 08:04:18;;;;;;;2.17;1.23;;;16.90;99.90;;;;;;5044743;28;20534;-71
2021/10/03 08:06:43;;;;;;;2.72;1.00;;;16.80;99.90;;;;;;5038277;28;20480;-71
2021/10/03 08:09:09;;;;;;;7.10;2.15;;;16.70;99.90;;;;;;5056539;28;20021;-71
2021/10/03 08:11:35;;;;;;;4.10;1.40;;;16.70;99.90;;;;;;5057478;28;20025;-71
2021/10/03 08:14:00;;;;;;;1.85;0.90;;;16.60;99.90;;;;;;5055947;28;20510;-71
2021/10/03 08:16:26;;;;;;;3.88;1.45;;;16.60;99.90;;;;;;5041686;28;20030;-71
2021/10/03 08:18:52;;;;;;;4.07;1.67;;;16.60;99.90;;;;;;5065970;28;20029;-71
2021/10/03 08:21:18;;;;;;;4.28;1.83;;;16.70;99.90;;;;;;5068446;28;20040;-71
2021/10/03 08:23:44;;;;;;;4.72;1.85;;;16.60;99.90;;;;;;5060519;28;20421;-71
2021/10/03 08:26:12;;;;;;;2.65;1.38;;;16.60;99.90;;;;;;5043534;28;20128;-71
2021/10/03 08:28:38;;;;;;;4.72;2.47;;;16.60;99.90;;;;;;5067366;28;20016;-71
2021/10/03 08:31:03;;;;;;;2.05;0.95;;;16.50;99.90;;;;;;5067433;28;20469;-72
2021/10/03 08:33:29;;;;;;;3.08;1.70;;;16.40;99.90;;;;;;5059952;28;20016;-72
2021/10/03 08:35:55;;;;;;;2.53;1.05;;;16.50;99.90;;;;;;5058410;28;20025;-71
2021/10/03 08:38:20;;;;;;;3.40;1.30;;;16.40;99.90;;;;;;5059291;28;21725;-71
2021/10/03 08:40:46;;;;;;;2.58;1.13;;;16.50;99.90;;;;;;5054864;28;20063;-71
2021/10/03 08:43:11;;;;;;;3.78;1.33;;;16.50;99.90;;;;;;5053417;28;20068;-71
2021/10/03 08:45:43;;;;;;;6.50;2.17;;;16.50;99.90;;;;;;5054842;28;20791;-71
2021/10/03 08:48:14;;;;;;;2.10;1.10;;;16.50;99.90;;;;;;5067123;28;20020;-71
2021/10/03 08:50:42;;;;;;;3.47;1.50;;;16.50;99.90;;;;;;5066133;28;20032;-71
2021/10/03 08:53:07;;;;;;;3.20;1.02;;;16.60;99.90;;;;;;5058275;28;20036;-72
2021/10/03 08:55:33;;;;;;;2.95;1.13;;;16.60;99.90;;;;;;5062262;28;20021;-71
2021/10/03 08:57:59;;;;;;;3.42;1.45;;;16.60;99.90;;;;;;5064293;28;20488;-71
2021/10/03 09:00:26;;;;;;;2.95;1.33;;;16.60;99.90;;;;;;5063042;28;20036;-71
2021/10/03 09:03:05;;;;;;;3.60;1.15;;;16.60;99.90;;;;;;5063451;28;20024;-71
2021/10/03 09:05:52;;;;;;;1.38;1.05;;;16.50;99.90;;;;;;5062650;28;20031;-72
2021/10/03 09:08:26;;;;;;;5.55;2.30;;;16.50;99.90;;;;;;5061197;28;20035;-71
2021/10/03 09:11:07;;;;;;;0.65;0.60;;;16.50;99.90;;;;;;5055402;28;20033;-71
2021/10/03 09:13:33;;;;;;;3.33;1.25;;;16.50;99.90;;;;;;5068517;28;20032;-71
2021/10/03 09:16:07;;;;;;;3.63;1.08;;;16.50;99.90;;;;;;5055435;28;20021;-71
2021/10/03 09:18:42;;;;;;;4.00;1.83;;;16.50;99.90;;;;;;5056541;28;20448;-71
2021/10/03 09:21:10;;;;;;;3.42;1.48;;;16.50;99.90;;;;;;5057834;28;20021;-72
2021/10/03 09:23:36;;;;;;;2.35;1.10;;;16.40;99.90;;;;;;5069673;28;20077;-72
2021/10/03 09:26:03;;;;;;;2.47;1.38;;;16.40;99.90;;;;;;5059476;28;20372;-71
2021/10/03 09:28:33;;;;;;;2.00;0.90;;;16.40;99.90;;;;;;5046117;28;20024;-71
2021/10/03 09:31:01;;;;;;;1.83;0.95;;;16.50;99.90;;;;;;5039958;28;20059;-71
2021/10/03 09:33:45;;;;;;;3.45;1.60;;;16.40;99.90;;;;;;5066825;28;20036;-71
2021/10/03 09:36:18;;;;;;;5.38;1.33;;;17.00;99.90;;;;;;5041180;28;20058;-72
2021/10/03 09:38:59;;;;;;;1.48;0.90;;;16.50;99.90;;;;;;5061450;28;20021;-71
2021/10/03 09:41:31;;;;;;;4.97;1.98;;;16.60;99.90;;;;;;5042343;28;20029;-72
2021/10/03 09:44:14;;;;;;;3.88;1.55;;;16.60;99.90;;;;;;5040850;28;20346;-72
2021/10/03 09:46:46;;;;;;;3.22;1.50;;;16.60;99.90;;;;;;5064218;28;20023;-72
2021/10/03 09:49:24;;;;;;;3.17;1.35;;;16.70;99.90;;;;;;5054782;28;20040;-73
2021/10/03 09:51:50;;;;;;;3.42;1.52;;;16.70;99.90;;;;;;5062635;28;20060;-72
2021/10/03 09:54:18;;;;;;;2.40;1.05;;;16.70;99.90;;;;;;5065542;28;20463;-72
2021/10/03 09:56:44;;;;;;;3.95;1.38;;;16.70;99.90;;;;;;5058094;28;20031;-72
2021/10/03 09:59:10;;;;;;;5.45;2.00;;;16.70;99.90;;;;;;5056428;28;20071;-72
2021/10/03 10:01:46;;;;;;;4.43;1.35;;;16.70;99.90;;;;;;5057276;28;20055;-72
2021/10/03 10:04:17;;;;;;;5.50;1.45;;;16.70;99.90;;;;;;5045522;28;20029;-72
2021/10/03 10:06:44;;;;;;;1.63;0.93;;;16.70;99.90;;;;;;5065865;28;20035;-72
2021/10/03 10:09:29;;;;;;;4.15;1.55;;;16.70;99.90;;;;;;5052997;28;20032;-72
2021/10/03 10:12:01;;;;;;;1.45;1.00;;;16.80;99.90;;;;;;5061602;28;20021;-72
2021/10/03 10:14:30;;;;;;;2.70;1.10;;;16.80;99.90;;;;;;5058063;28;20035;-72
2021/10/03 10:17:00;;;;;;;2.92;1.23;;;16.80;99.90;;;;;;5061042;28;20024;-72
2021/10/03 10:19:38;;;;;;;;;;;16.80;99.90;;;;;;5053359;28;20400;-72
2021/10/03 10:22:32;;;;;;;2.58;1.15;;;16.80;99.90;;;;;;5058213;28;19959;-72
2021/10/03 10:25:04;;;;;;;3.08;1.42;;;16.90;99.90;;;;;;5040305;28;20047;-71
2021/10/03 10:27:29;;;;;;;2.58;1.30;;;16.80;99.90;;;;;;5056790;28;20086;-72
2021/10/03 10:29:59;;;;;;;3.92;1.33;;;16.80;99.90;;;;;;5052169;28;20033;-72
2021/10/03 10:32:57;;;;;;;3.35;1.17;;;16.80;99.90;;;;;;5057497;28;20033;-72
2021/10/03 10:35:24;;;;;;;2.83;1.20;;;16.80;99.90;;;;;;5061944;28;20024;-72
2021/10/03 10:37:50;;;;;;;3.60;1.15;;;16.80;99.90;;;;;;5059068;28;20114;-72
2021/10/03 10:40:24;;;;;;;4.43;2.08;;;16.80;99.90;;;;;;5058450;28;20492;-73
2021/10/03 10:42:53;;;;;;;3.22;1.55;;;16.80;99.90;;;;;;5062978;28;20028;-72
2021/10/03 10:45:27;;;;;;;2.58;1.33;;;16.80;99.90;;;;;;5062194;28;20033;-72
2021/10/03 10:48:14;;;;;;;2.58;1.00;;;17.00;99.90;;;;;;5047892;28;20012;-73
2021/10/03 10:50:49;;;;;;;0.88;0.65;;;17.00;99.90;;;;;;5060370;28;20032;-72
2021/10/03 10:53:27;;;;;;;3.60;2.05;;;17.00;99.90;;;;;;5065147;28;20112;-73
2021/10/03 10:56:05;;;;;;;3.60;1.25;;;17.00;99.90;;;;;;5065107;28;20099;-73
2021/10/03 10:58:59;;;;;;;2.08;0.90;;;17.00;99.90;;;;;;5061301;28;20021;-73
2021/10/03 11:01:30;;;;;;;1.20;0.98;;;17.00;99.90;;;;;;5065552;28;20020;-73
2021/10/03 11:04:01;;;;;;;2.00;1.00;;;17.00;99.90;;;;;;5065197;28;20040;-72
2021/10/03 11:06:26;;;;;;;;;;;17.00;99.90;;;;;;5063694;28;20688;-73
2021/10/03 11:09:00;;;;;;;3.22;1.42;;;17.00;99.90;;;;;;5064017;28;19912;-73
2021/10/03 11:11:28;;;;;;;3.97;1.90;;;17.10;99.90;;;;;;5062022;28;20553;-73
2021/10/03 11:13:56;;;;;;;4.28;1.55;;;17.10;99.90;;;;;;5063906;28;20113;-72
2021/10/03 11:16:32;;;;;;;10.35;1.38;;;17.10;99.90;;;;;;5035090;28;20033;-72
2021/10/03 11:19:05;;;;;;;3.05;1.35;;;17.10;99.90;;;;;;5064414;28;20102;-72
2021/10/03 11:21:40;;;;;;;0.70;0.60;;;17.20;99.90;;;;;;5061909;28;20029;-72
2021/10/03 11:24:07;;;;;;;2.00;1.05;;;17.20;99.90;;;;;;5063623;28;20040;-73
2021/10/03 11:26:53;;;;;;;1.13;0.80;;;17.30;99.90;;;;;;5043394;28;20024;-73
2021/10/03 11:29:25;;;;;;;3.05;1.55;;;17.30;99.90;;;;;;5063649;28;20378;-72
2021/10/03 11:32:00;;;;;;;2.20;1.00;;;17.30;99.90;;;;;;5066291;28;20035;-72
2021/10/03 11:34:42;;;;;;;2.08;0.98;;;17.30;99.90;;;;;;5065172;28;20039;-72
2021/10/03 11:37:42;;;;;;;2.00;0.98;;;17.30;99.90;;;;;;5061904;28;20177;-72
2021/10/03 11:40:23;;;;;;;3.22;1.48;;;17.40;99.90;;;;;;5063506;28;20028;-72
2021/10/03 11:42:50;;;;;;;2.55;0.80;;;17.40;99.90;;;;;;5064997;28;20036;-72
2021/10/03 11:45:20;;;;;;;2.92;1.20;;;17.60;99.90;;;;;;5061563;28;20392;-72
2021/10/03 11:47:47;;;;;;;;;;;17.60;99.90;;;;;;5060808;28;20468;-72
2021/10/03 11:50:21;;;;;;;2.67;1.13;;;17.50;99.90;;;;;;5049397;28;20343;-72
2021/10/03 11:52:47;;;;;;;4.90;1.90;;;17.50;99.90;;;;;;5064675;28;20092;-72
2021/10/03 11:55:18;;;;;;;1.95;1.05;;;17.50;99.90;;;;;;5064579;28;20032;-72
2021/10/03 11:57:49;;;;;;;1.90;0.90;;;17.40;99.90;;;;;;5042459;28;20032;-72
2021/10/03 12:00:19;;;;;;;2.58;1.08;;;16.80;99.90;;;;;;5044190;28;20645;-72
2021/10/03 12:02:50;;;;;;;1.85;1.23;;;17.40;99.90;;;;;;5060338;28;20051;-72
2021/10/03 12:05:23;;;;;;;1.55;0.80;;;17.40;99.90;;;;;;5062356;28;20033;-72
2021/10/03 12:08:04;;;;;;;2.03;0.95;;;17.40;99.90;;;;;;5066051;28;20027;-72
2021/10/03 12:10:34;;;;;;;3.33;1.38;;;17.40;99.90;;;;;;5062544;28;20478;-72
2021/10/03 12:13:00;;;;;;;2.22;1.50;;;17.50;99.90;;;;;;5058742;28;20379;-72
2021/10/03 12:15:51;;;;;;;3.38;1.50;;;17.50;99.90;;;;;;5065925;28;20078;-72
2021/10/03 12:18:29;;;;;;;2.38;1.13;;;17.40;99.90;;;;;;5066148;28;20024;-71
2021/10/03 12:21:03;;;;;;;3.10;1.20;;;17.40;99.90;;;;;;5062535;28;20029;-72
2021/10/03 12:24:02;;;;;;;2.30;1.17;;;17.30;99.90;;;;;;5064478;28;20020;-72
2021/10/03 12:26:32;;;;;;;4.50;1.63;;;17.30;99.90;;;;;;5043961;28;20039;-72
2021/10/03 12:29:04;;;;;;;1.38;0.77;;;17.30;99.90;;;;;;5040102;28;20079;-71
2021/10/03 12:31:37;;;;;;;2.40;1.10;;;17.30;99.90;;;;;;5067098;28;20063;-72
2021/10/03 12:34:13;;;;;;;3.78;1.20;;;17.30;99.90;;;;;;5057966;28;20464;-71
2021/10/03 12:36:39;;;;;;;3.63;1.25;;;17.40;99.90;;;;;;5059195;28;20028;-71
2021/10/03 12:39:05;;;;;;;3.40;1.20;;;17.40;99.90;;;;;;5056076;28;20082;-71
2021/10/03 12:41:31;;;;;;;0.75;0.60;;;17.40;99.90;;;;;;5036200;28;20418;-71
2021/10/03 12:43:56;;;;;;;1.98;0.98;;;17.40;99.90;;;;;;5057733;28;20068;-71
2021/10/03 12:46:23;;;;;;;2.70;1.30;;;17.40;99.90;;;;;;5051002;28;20082;-72
2021/10/03 12:48:49;;;;;;;3.67;1.50;;;17.40;99.90;;;;;;5051875;28;20039;-72
2021/10/03 12:51:15;;;;;;;2.83;1.05;;;17.40;99.90;;;;;;5058917;28;20383;-72
2021/10/03 12:53:41;;;;;;;5.13;1.52;;;17.40;99.90;;;;;;5066919;28;20138;-72